Abdullah Al-Subaie

Recruteur en chef - Al-Hilal
23 Oct 2027
Samedi
Processus

Personnalité

Adaptabilité (9) Ambition (9) Controverse (20) Loyauté (15) Pression (3) Professionnalisme (20) Sportivité (6) Tempérament (14)

Profil

Style d'entraînement Démocratique
Diplôme National A
Détermination 10
Gestion des joueurs 9
Motivation 10
Discipline 4
Satisfaction professionnelle
100%
Fatigue
0%
Rôle Recruteur en chef
Salaire 29.5K p/s
Contrat 14.03.2030

Performance

Comportement Bon
Efficacité de l'entraînement
33%
Développement des joueurs
55%
Prévention des blessures
35%
Mise en place tactique
60%

Événements récents

A évalué un joueur maintenant
A participé à une réunion de recrutement maintenant
A évalué un joueur maintenant
A évalué un joueur maintenant
A participé à une réunion de recrutement 7j
A évalué un joueur 7j
A évalué un joueur 7j
A évalué un joueur 7j

Suivi en cours

180
Joueur Club Statut Capacité Confiance Observé Dernière observation Dernier vote
Silvère Ganvoula Al-Qadisiyah Actif 120 / 121 40% 3 22.10.2027 -
Taiwo Awoniyi Coventry City Actif 148 / 150 40% 3 22.10.2027 -
Lucas Besozzi Lanús Actif 115 / 116 40% 1 22.10.2027 -
Harrison Armstrong Everton Actif 125 / 129 40% 3 21.10.2027 -
Toni Tamarit Alverca Actif 117 / 124 40% 2 21.10.2027 -
Sol Sidibé PSV Actif 109 / 122 40% 1 21.10.2027 -
Mirza Ćatović VfB Stuttgart Actif 120 / 131 40% 3 20.10.2027 -
Niccolò Fortini Fiorentina Actif 131 / 145 40% 1 20.10.2027 -
Marvin Akahomen Basel Actif 108 / 112 40% 1 20.10.2027 -
Julián Bazán Philadelphia Union Actif 101 / 123 40% 2 19.10.2027 -
João Teixeira Porto Actif 108 / 111 40% 1 19.10.2027 -
Matvey Bardachev Zenit Actif 105 / 113 40% 1 19.10.2027 -
Ian Subiabre River Plate Actif 126 / 140 40% 2 18.10.2027 -
Jonathan Dubasin Osasuna Actif 151 / 151 40% 2 18.10.2027 -
Lorenzo Colombo Genoa Actif 140 / 142 40% 1 18.10.2027 -
Elias Manoel Tijuana Actif 130 / 101 40% 1 17.10.2027 -
Charles Courtois Mouscron Actif 134 / 132 40% 1 17.10.2027 -
Gonçalo Oliveira Benfica Actif 109 / 118 40% 2 16.10.2027 -
Thiago Silvero Sevilla Actif 131 / 126 40% 1 16.10.2027 -
Josh Stephenson Brentford Actif 119 / 113 40% 2 15.10.2027 -
Yunus Emre Konak Brentford Actif 134 / 138 40% 1 15.10.2027 -
Thiago Helguera Braga Actif 126 / 131 40% 1 15.10.2027 -
Ivan Toney Al-Ahli Actif 147 / 142 40% 3 11.10.2027 -
Nathan Fogaça Fortaleza Actif 120 / 130 40% 3 11.10.2027 -
Tiago Parente Benfica Actif 105 / 116 40% 1 11.10.2027 -
Luca Bombino Stoke City Actif 110 / 118 40% 1 11.10.2027 -
Axel Tape Bayer Leverkusen Actif 131 / 132 40% 2 10.10.2027 -
Jorthy Mokio Ajax Actif 135 / 128 40% 1 10.10.2027 -
Kauã Moraes Cruzeiro Actif 126 / 129 40% 1 10.10.2027 -
Moussa Koné Al-Ra'ed Actif 129 / 114 40% 6 08.10.2027 -
Brian Mansilla Akhmat Grozny Actif 119 / 103 40% 3 08.10.2027 -
Flamarion Pakhtakor Actif 110 / 125 40% 3 07.10.2027 -
Esteban Obregón Gimnasia La Plata Actif 115 / 112 40% 2 07.10.2027 -
Léo Natel Ordabasy Actif 127 / 125 40% 1 07.10.2027 -
Martim Cunha Porto Actif 102 / 120 40% 1 07.10.2027 -
Lautaro Dufur Rentistas Actif 105 / 117 40% 1 07.10.2027 -
Bradel Kiwa Monaco Actif 127 / 119 40% 1 07.10.2027 -
Taty Castellanos West Ham United Actif 149 / 148 40% 1 04.10.2027 -
Kelvin Flórez Junior Actif 119 / 121 40% 1 04.10.2027 -
Adam Aznou Everton Actif 127 / 124 40% 3 03.10.2027 -
Khalis Merah Olympique Lyonnais Actif 123 / 148 40% 3 03.10.2027 -
Elías Torres Racing Club Actif 116 / 111 40% 1 03.10.2027 -
Luciano Gondou Krylya Sovetov Actif 129 / 115 40% 1 03.10.2027 -
Jorginho Kairat Actif 117 / 128 40% 1 03.10.2027 -
Yoram Zague Paris Saint-Germain Actif 130 / 128 40% 1 03.10.2027 -
Sergio Martínez Real Madrid Actif 115 / 113 40% 2 30.09.2027 -
Facundo González River Plate Actif 106 / 104 40% 2 29.09.2027 -
Eliás Montiel Atlético Madrid Actif 134 / 143 40% 2 29.09.2027 -
Lakyle Samuel Manchester City Actif 99 / 110 40% 1 29.09.2027 -
Víctor Valverde BATE Actif 141 / 114 40% 1 28.09.2027 -
Jonatan Torres Cerro Porteno Actif 130 / 125 40% 1 28.09.2027 -
Abubacarr Sedi Kinteh Al-Ahli Actif 130 / 134 40% 4 27.09.2027 -
Lucas Ríos Atlanta Actif 120 / 123 40% 2 25.09.2027 -
Wilfried Kanga Al-Fateh Actif 116 / 129 40% 9 23.09.2027 -
Tomás Chancalay Minnesota United FC Actif 139 / 125 40% 5 23.09.2027 -
Zach Abbott Nottingham Forest Actif 124 / 123 40% 6 23.09.2027 -
Juan David Arizala Udinese Actif 124 / 139 40% 1 23.09.2027 -
Denzel Jubitana Neftchi Actif 132 / 112 40% 8 22.09.2027 -
David Vasco da Gama Actif 120 / 117 40% 2 22.09.2027 -
Bongokuhle Hlongwane Minnesota United FC Actif 144 / 148 40% 1 19.09.2027 -
Souleymane Faye Sporting CP Actif 133 / 127 40% 1 19.09.2027 -
Feras Al-Brikan Al-Ahli Actif 123 / 120 40% 3 18.09.2027 -
Breel Embolo Atlanta United FC Actif 136 / 152 40% 2 18.09.2027 -
Peter Olayinka Al-Wehda Actif 125 / 134 40% 3 16.09.2027 -
Jhon Murillo America de Cali Actif 117 / 127 40% 3 15.09.2027 -
Efe Akman Andorra Actif 114 / 122 40% 1 15.09.2027 -
Jonathan Rowe Bologna Actif 136 / 150 40% 1 15.09.2027 -
Nabil Alioui Najran Actif 108 / 104 40% 2 14.09.2027 -
Iker Bravo Udinese Actif 131 / 142 40% 2 12.09.2027 -
Marcus Vinicius Saburtalo Actif 125 / 121 40% 1 12.09.2027 -
Chinedu Geoffrey Krylya Sovetov Actif 110 / 118 40% 11 11.09.2027 -
Vadim Rakov Lokomotiv Moscow Actif 126 / 113 40% 1 11.09.2027 -
Salvador Blopá Sporting CP Actif 118 / 135 40% 1 11.09.2027 -
Mikhail Ryadno Baltika Actif 94 / 101 40% 2 10.09.2027 -
Gabriel Taliari Juventude Actif 120 / 118 40% 1 09.09.2027 -
Gustavo Santos Krasnodar Actif 123 / 115 40% 1 06.09.2027 -
Lucas Barrientos Los Andes Actif 98 / 106 40% 1 04.09.2027 -
Juma Bah Manchester City Actif 132 / 138 40% 1 04.09.2027 -
Ishé Samuels-Smith Chelsea Actif 118 / 116 40% 1 03.09.2027 -
Honest Ahanor Atalanta Actif 132 / 150 40% 1 03.09.2027 -
Aidan Borland Aston Villa Actif 104 / 124 40% 1 02.09.2027 -
Felipe Faúndez O'Higgins Actif 105 / 98 40% 2 01.09.2027 -
Souza Tottenham Actif 134 / 145 40% 1 01.09.2027 -
Luca Raffin Rosario Central Actif 106 / 117 40% 2 31.08.2027 -
Law McCabe Middlesbrough Actif 118 / 122 40% 2 31.08.2027 -
Kaick FC Dallas Actif 111 / 97 40% 1 29.08.2027 -
Tiago Freitas Benfica Actif 113 / 127 40% 2 24.08.2027 -
Justin Bourgault Stade Brestois Actif 116 / 124 40% 1 24.08.2027 -
Felipe Schaare Racing Club Actif 95 / 103 40% 1 23.08.2027 -
Andrey Ivlev Nizhniy Novgorod Perdu 124 / 113 40% 2 21.08.2027 -
Noël Aséko Eintracht Frankfurt Actif 130 / 129 40% 2 19.08.2027 -
Benjamin Arthur Brentford Actif 126 / 136 40% 1 19.08.2027 -
Davide Bartesaghi AC Milan Actif 142 / 144 40% 1 18.08.2027 -
Guy Noël Zohouri Le Havre AC Actif 118 / 122 40% 1 18.08.2027 -
Valentino Massi Sarmiento Actif 95 / 109 40% 1 18.08.2027 -
Reggie Walsh Chelsea Actif 125 / 140 40% 1 17.08.2027 -
Hugo Moura Al-Fayha Perdu 123 / 126 65% 1 12.07.2027 Approuver
Christopher Bonsu Baah Al-Qadisiyah Perdu 132 / 124 65% 1 05.07.2027 Approuver
Jaydee Canvot Liverpool Actif 137 / 139 40% 1 01.06.2027 -
Christos Mouzakitis Hull City Actif 128 / 142 40% 1 01.06.2027 -
Facundo Balatti Penarol Actif 99 / 123 40% 1 31.05.2027 -
Arthur Gomes Dinamo Moscow Actif 125 / 130 40% 6 28.05.2027 -
Thalys Almería Actif 116 / 115 40% 3 28.05.2027 -
Jacques Siwe Rubin Actif 105 / 110 40% 8 27.05.2027 -
Jalen Blesa Rio Ave Actif 118 / 125 40% 3 27.05.2027 -
Xavier Biscayzacú Sporting CP Actif 133 / 141 40% 4 26.05.2027 -
Senny Mayulu Paris Saint-Germain Actif 148 / 137 40% 1 26.05.2027 -
Liel Abada Charlotte Football Club Actif 135 / 151 40% 3 25.05.2027 -
Mikhail Ignatov Sochi Actif 114 / 105 40% 7 25.05.2027 -
Leandro Antunes Al-Riyadh Actif 121 / 119 40% 12 18.05.2027 -
Youssef En-Nesyri Al-Ittihad Actif 136 / 138 40% 4 11.05.2027 -
Vyacheslav Grulev Nizhniy Novgorod Actif 101 / 127 40% 3 11.05.2027 -
Dmitry Vorobjov Krasnodar Actif 130 / 126 40% 8 10.05.2027 -
Yegor Golenkov Rostov Actif 115 / 103 40% 4 07.05.2027 -
Alexandr Rudenko Lokomotiv Moscow Actif 122 / 100 40% 5 06.05.2027 -
Petter Nosa Dahl Borussia Mönchengladbach Actif 132 / 115 40% 2 04.05.2027 -
Bahlul Mammadov Inter Actif 124 / 125 40% 8 30.04.2027 -
Luca Orellano Atlético Madrid Actif 133 / 142 40% 4 28.04.2027 -
Rafiki Saïd Wolverhampton Actif 119 / 119 40% 3 28.04.2027 -
Dardan Shabanhaxhaj Rubin Actif 125 / 109 40% 6 26.04.2027 -
Maksim Samorodov Akhmat Grozny Actif 120 / 134 40% 2 25.04.2027 -
Juan Manuel Boselli Krasnodar Actif 114 / 132 40% 8 20.04.2027 -
Jordan Larsson Al-Ettifaq Perdu 116 / 117 40% 5 07.04.2027 -
Mao Hosoya Manchester City Actif 133 / 135 40% 1 02.04.2027 -
Matías Fernández-Pardo Newcastle United Actif 138 / 142 40% 3 29.03.2027 -
Brayan Gil Baltika Actif 129 / 130 40% 8 28.03.2027 -
Georgy Melkadze Akhmat Grozny Actif 101 / 116 40% 2 14.03.2027 -
Rüstəm Əhmədzadə Sumgayit Actif 113 / 106 40% 1 08.03.2027 -
Timur Suleimanov Rostov Actif 126 / 115 40% 1 05.03.2027 -
Jofre Torrents Ajax Actif 128 / 130 40% 1 18.01.2027 -
Eduard Spertsyan Al-Ahli Actif 144 / 136 40% 1 11.01.2027 -
Vladislav Sarveli Nizhniy Novgorod Actif 100 / 99 40% 2 29.12.2026 -
Younes Ebnoutalib Eintracht Frankfurt Actif 122 / 134 40% 1 24.12.2026 -
Milad Jahanbakhsh Rah Ahan Actif 106 / 108 40% 1 24.12.2026 -
Sidiki Chérif Coventry City Actif 121 / 127 40% 1 21.12.2026 -
Troy Parrott Betis Actif 142 / 147 40% 8 19.12.2026 -
Riley Owen Wycombe Wanderers Actif 100 / 100 40% 1 14.12.2026 -
Dilan Ortíz Ufa Actif 89 / 93 40% 2 09.12.2026 -
Daniil Agureev Amkar Actif 95 / 92 40% 1 04.12.2026 -
Isaac Tshibangu Emirates Club Actif 96 / 117 40% 1 03.12.2026 -
João Simões Sporting CP Actif 127 / 129 40% 2 30.11.2026 -
Isaac Matondo Koper Actif 95 / 121 40% 2 30.11.2026 -
Max Svensson Penafiel Actif 105 / 98 40% 1 24.11.2026 -
Juan Carlos Arana Racing Santander Actif 121 / 123 40% 1 22.11.2026 -
Nazareno Roselli Defensa y Justicia Actif 115 / 122 40% 1 19.11.2026 -
Manu Nieto Andorra Actif 118 / 125 40% 4 15.11.2026 -
Ekain Orobengoa Real Sociedad Actif 106 / 107 40% 1 09.11.2026 -
Franck Etouga CR Belouizdad Actif 99 / 110 40% 1 09.11.2026 -
Koshaim Al-Qahtani Al-Taawoun Actif 99 / 95 40% 2 30.10.2026 -
Steven Bergwijn Al-Ittihad Actif 142 / 158 40% 1 25.10.2026 -
German Onugkha Rodina Actif 111 / 100 40% 1 22.10.2026 -
Manprit Sarkaria Austria Wien Actif 124 / 119 40% 1 21.10.2026 -
Bojan Radulović Huddersfield Town Actif 124 / 126 40% 2 20.10.2026 -
Paul Glatzel Swindon Town Actif 102 / 96 40% 1 19.10.2026 -
Mxolisi Mthiya Ohod Actif 72 / 80 40% 1 12.10.2026 -
Hazzaa Al-Ghamdi Damac Actif 91 / 102 40% 1 12.10.2026 -
Kevin Isa Luna Central Norte Actif 112 / 105 40% 1 11.10.2026 -
Saman Taremi Padideh Actif 112 / 103 40% 1 07.10.2026 -
Veljko Birmančević Ferencvaros Actif 127 / 135 40% 2 04.10.2026 -
Ramiro Ruiz Rodríguez Atlético Tucumán Actif 118 / 120 40% 1 01.10.2026 -
Dmitry Lesnikov Volgar Actif 97 / 106 40% 1 29.09.2026 -
Chuchu Ramírez Nacional Actif 123 / 140 40% 2 27.09.2026 -
Blaž Kramer NK Celje Actif 124 / 123 40% 1 25.09.2026 -
Roman Dixon Walsall Actif 109 / 100 40% 1 24.09.2026 -
Tio Cipot NK Maribor Actif 111 / 121 40% 1 23.09.2026 -
Teun Gijselhart Deportivo La Coruña Actif 107 / 107 40% 1 22.09.2026 -
Steven Nsimba Universitatea Craiova Actif 121 / 135 40% 1 20.09.2026 -
Yegor Kortsov Dinamo Brest Actif 101 / 114 40% 1 19.09.2026 -
Callum Olusesi Tottenham Actif 102 / 103 40% 1 19.09.2026 -
Fahad Al-Zubaidi Al-Fateh Actif 114 / 98 40% 1 19.09.2026 -
Younes El Bahraoui Al-Taawoun Actif 101 / 107 40% 2 15.09.2026 -
Sam Dalby Bolton Wanderers Actif 106 / 120 40% 1 14.09.2026 -
Modou Niang Al Ain Actif 74 / 92 40% 1 14.09.2026 -
Louay Trayi Al Wahda Actif 89 / 103 40% 1 08.09.2026 -
Jonathan De Irastorza Levante Actif 112 / 119 40% 1 07.09.2026 -
Hamad Juma Al Shaab Actif 107 / 105 40% 1 03.09.2026 -
Alejo Gelsomino Gimnasia La Plata Actif 92 / 97 40% 1 02.09.2026 -
Santiago Espíndola River Plate Actif 102 / 122 40% 1 02.09.2026 -
Mauro Carrizo Atlético Tucumán Actif 98 / 105 40% 1 17.08.2026 -
Zach Mitchell Charlton Athletic Actif 106 / 90 40% 1 03.08.2026 -